sensor_id;sensor_type;location;lat;lon;timestamp;pressure;altitude;pressure_sealevel;temperature;humidity
15263;BME280;7733;51.554;13.590;2023-03-13T00:01:40;99713.50;;;9.30;97.80
15263;BME280;7733;51.554;13.590;2023-03-13T00:04:06;99708.94;;;9.40;97.61
15263;BME280;7733;51.554;13.590;2023-03-13T00:06:36;99708.88;;;9.44;96.81
15263;BME280;7733;51.554;13.590;2023-03-13T00:09:09;99712.50;;;9.36;97.76
15263;BME280;7733;51.554;13.590;2023-03-13T00:11:35;99717.84;;;9.31;97.92
15263;BME280;7733;51.554;13.590;2023-03-13T00:14:05;99712.19;;;9.53;96.57
15263;BME280;7733;51.554;13.590;2023-03-13T00:16:31;99712.44;;;9.39;98.04
15263;BME280;7733;51.554;13.590;2023-03-13T00:19:00;99708.75;;;9.49;97.27
15263;BME280;7733;51.554;13.590;2023-03-13T00:21:28;99707.06;;;9.47;97.13
15263;BME280;7733;51.554;13.590;2023-03-13T00:23:55;99712.03;;;9.59;96.73
15263;BME280;7733;51.554;13.590;2023-03-13T00:26:23;99707.16;;;9.43;97.27
15263;BME280;7733;51.554;13.590;2023-03-13T00:28:49;99709.59;;;9.51;97.75
15263;BME280;7733;51.554;13.590;2023-03-13T00:31:28;99704.47;;;9.47;96.73
15263;BME280;7733;51.554;13.590;2023-03-13T00:34:01;99713.03;;;9.53;96.90
15263;BME280;7733;51.554;13.590;2023-03-13T00:36:31;99712.06;;;9.57;95.91
15263;BME280;7733;51.554;13.590;2023-03-13T00:38:58;99706.94;;;9.53;96.72
15263;BME280;7733;51.554;13.590;2023-03-13T00:41:30;99703.31;;;9.58;96.70
15263;BME280;7733;51.554;13.590;2023-03-13T00:43:57;99691.31;;;9.50;96.72
15263;BME280;7733;51.554;13.590;2023-03-13T00:46:27;99695.72;;;9.48;96.77
15263;BME280;7733;51.554;13.590;2023-03-13T00:48:53;99691.34;;;9.48;97.40
15263;BME280;7733;51.554;13.590;2023-03-13T00:51:21;99689.59;;;9.49;96.75
15263;BME280;7733;51.554;13.590;2023-03-13T00:53:48;99689.53;;;9.50;97.08
15263;BME280;7733;51.554;13.590;2023-03-13T00:56:17;99688.94;;;9.37;97.00
15263;BME280;7733;51.554;13.590;2023-03-13T00:58:45;99677.38;;;9.48;96.98
15263;BME280;7733;51.554;13.590;2023-03-13T01:01:24;99678.19;;;9.51;97.00
15263;BME280;7733;51.554;13.590;2023-03-13T01:04:00;99680.25;;;9.35;97.72
15263;BME280;7733;51.554;13.590;2023-03-13T01:06:29;99673.06;;;9.47;97.36
15263;BME280;7733;51.554;13.590;2023-03-13T01:08:55;99676.88;;;9.30;97.85
15263;BME280;7733;51.554;13.590;2023-03-13T01:11:25;99676.88;;;9.30;97.84
15263;BME280;7733;51.554;13.590;2023-03-13T01:13:58;99672.41;;;9.35;97.53
15263;BME280;7733;51.554;13.590;2023-03-13T01:16:26;99674.91;;;9.40;97.39
15263;BME280;7733;51.554;13.590;2023-03-13T01:18:55;99666.09;;;9.45;97.14
15263;BME280;7733;51.554;13.590;2023-03-13T01:21:23;99674.13;;;9.36;97.62
15263;BME280;7733;51.554;13.590;2023-03-13T01:23:50;99666.91;;;9.48;97.08
15263;BME280;7733;51.554;13.590;2023-03-13T01:26:16;99669.69;;;9.41;97.36
15263;BME280;7733;51.554;13.590;2023-03-13T01:28:43;99664.31;;;9.48;97.13
15263;BME280;7733;51.554;13.590;2023-03-13T01:31:25;99656.50;;;9.44;96.94
15263;BME280;7733;51.554;13.590;2023-03-13T01:33:58;99659.97;;;9.47;96.91
15263;BME280;7733;51.554;13.590;2023-03-13T01:36:26;99660.50;;;9.61;96.06
15263;BME280;7733;51.554;13.590;2023-03-13T01:38:55;99650.97;;;9.58;96.39
15263;BME280;7733;51.554;13.590;2023-03-13T01:41:22;99653.63;;;9.57;95.80
15263;BME280;7733;51.554;13.590;2023-03-13T01:43:49;99658.75;;;9.63;94.61
15263;BME280;7733;51.554;13.590;2023-03-13T01:46:20;99656.91;;;9.66;95.05
15263;BME280;7733;51.554;13.590;2023-03-13T01:51:57;99651.97;;;9.53;95.86
15263;BME280;7733;51.554;13.590;2023-03-13T01:54:35;99646.59;;;9.59;95.70
15263;BME280;7733;51.554;13.590;2023-03-13T01:57:24;99647.56;;;9.55;95.05
15263;BME280;7733;51.554;13.590;2023-03-13T02:02:24;99636.34;;;9.50;96.21
15263;BME280;7733;51.554;13.590;2023-03-13T02:04:57;99624.06;;;9.52;95.99
15263;BME280;7733;51.554;13.590;2023-03-13T02:10:35;99610.84;;;9.58;95.64
15263;BME280;7733;51.554;13.590;2023-03-13T02:13:03;99614.41;;;9.54;95.71
15263;BME280;7733;51.554;13.590;2023-03-13T02:15:30;99602.72;;;9.70;94.79
15263;BME280;7733;51.554;13.590;2023-03-13T02:17:56;99601.00;;;9.69;94.19
15263;BME280;7733;51.554;13.590;2023-03-13T02:20:22;99602.81;;;9.65;94.44
15263;BME280;7733;51.554;13.590;2023-03-13T02:25:41;99602.94;;;9.59;93.94
15263;BME280;7733;51.554;13.590;2023-03-13T02:28:16;99593.31;;;9.61;93.81
15263;BME280;7733;51.554;13.590;2023-03-13T02:30:44;99603.66;;;9.67;93.14
15263;BME280;7733;51.554;13.590;2023-03-13T02:33:12;99601.25;;;9.57;93.47
15263;BME280;7733;51.554;13.590;2023-03-13T02:35:40;99593.38;;;9.58;93.17
15263;BME280;7733;51.554;13.590;2023-03-13T02:38:10;99596.34;;;9.80;92.42
15263;BME280;7733;51.554;13.590;2023-03-13T02:40:43;99587.06;;;9.67;92.46
15263;BME280;7733;51.554;13.590;2023-03-13T02:43:31;99586.66;;;9.85;91.29
15263;BME280;7733;51.554;13.590;2023-03-13T02:46:26;99592.19;;;9.71;91.92
15263;BME280;7733;51.554;13.590;2023-03-13T02:48:55;99585.88;;;9.82;91.03
15263;BME280;7733;51.554;13.590;2023-03-13T02:54:00;99580.63;;;9.82;91.33
15263;BME280;7733;51.554;13.590;2023-03-13T02:56:32;99592.19;;;9.71;91.48
15263;BME280;7733;51.554;13.590;2023-03-13T02:58:58;99583.25;;;9.80;90.96
15263;BME280;7733;51.554;13.590;2023-03-13T03:01:25;99585.13;;;9.75;90.55
15263;BME280;7733;51.554;13.590;2023-03-13T03:03:50;99587.34;;;9.92;90.26
15263;BME280;7733;51.554;13.590;2023-03-13T03:06:16;99586.53;;;9.90;89.98
15263;BME280;7733;51.554;13.590;2023-03-13T03:08:43;99577.00;;;9.87;90.29
15263;BME280;7733;51.554;13.590;2023-03-13T03:11:09;99577.53;;;10.01;89.60
15263;BME280;7733;51.554;13.590;2023-03-13T03:13:36;99568.81;;;9.99;89.98
15263;BME280;7733;51.554;13.590;2023-03-13T03:16:11;99569.88;;;9.92;90.28
15263;BME280;7733;51.554;13.590;2023-03-13T03:18:39;99566.19;;;9.99;90.08
15263;BME280;7733;51.554;13.590;2023-03-13T03:21:06;99561.03;;;9.96;89.93
15263;BME280;7733;51.554;13.590;2023-03-13T03:23:33;99553.00;;;10.04;89.73
15263;BME280;7733;51.554;13.590;2023-03-13T03:26:00;99548.47;;;10.11;89.40
15263;BME280;7733;51.554;13.590;2023-03-13T03:28:26;99541.59;;;10.06;89.31
15263;BME280;7733;51.554;13.590;2023-03-13T03:30:52;99538.88;;;10.10;89.42
15263;BME280;7733;51.554;13.590;2023-03-13T03:33:23;99540.50;;;10.14;88.94
15263;BME280;7733;51.554;13.590;2023-03-13T03:35:49;99533.72;;;10.06;89.08
15263;BME280;7733;51.554;13.590;2023-03-13T03:38:16;99527.41;;;10.14;89.09
15263;BME280;7733;51.554;13.590;2023-03-13T03:40:41;99523.38;;;10.00;89.64
15263;BME280;7733;51.554;13.590;2023-03-13T03:43:07;99519.00;;;10.01;89.26
15263;BME280;7733;51.554;13.590;2023-03-13T03:45:33;99527.56;;;10.07;89.45
15263;BME280;7733;51.554;13.590;2023-03-13T03:47:59;99516.16;;;10.10;89.40
15263;BME280;7733;51.554;13.590;2023-03-13T03:50:27;99522.00;;;10.20;88.26
15263;BME280;7733;51.554;13.590;2023-03-13T03:52:53;99513.16;;;10.25;88.76
15263;BME280;7733;51.554;13.590;2023-03-13T03:55:19;99510.38;;;10.31;88.18
15263;BME280;7733;51.554;13.590;2023-03-13T03:57:45;99502.28;;;10.06;89.13
15263;BME280;7733;51.554;13.590;2023-03-13T04:00:11;99493.06;;;10.26;88.65
15263;BME280;7733;51.554;13.590;2023-03-13T04:02:41;99496.69;;;10.19;88.91
15263;BME280;7733;51.554;13.590;2023-03-13T04:05:07;99487.72;;;10.29;88.92
15263;BME280;7733;51.554;13.590;2023-03-13T04:07:33;99483.78;;;10.13;88.59
15263;BME280;7733;51.554;13.590;2023-03-13T04:09:58;99473.41;;;10.08;89.30
15263;BME280;7733;51.554;13.590;2023-03-13T04:12:24;99458.78;;;9.99;89.82
15263;BME280;7733;51.554;13.590;2023-03-13T04:14:50;99467.81;;;9.89;90.36
15263;BME280;7733;51.554;13.590;2023-03-13T04:17:16;99467.63;;;9.95;90.28
15263;BME280;7733;51.554;13.590;2023-03-13T04:19:42;99468.53;;;9.94;90.54
15263;BME280;7733;51.554;13.590;2023-03-13T04:22:07;99460.75;;;9.91;90.33
15263;BME280;7733;51.554;13.590;2023-03-13T04:24:33;99455.97;;;10.07;89.89
15263;BME280;7733;51.554;13.590;2023-03-13T04:26:59;99459.22;;;9.84;90.53
15263;BME280;7733;51.554;13.590;2023-03-13T04:29:27;99451.06;;;9.95;90.54
15263;BME280;7733;51.554;13.590;2023-03-13T04:31:52;99443.00;;;10.02;90.12
15263;BME280;7733;51.554;13.590;2023-03-13T04:34:18;99441.59;;;10.23;89.18
15263;BME280;7733;51.554;13.590;2023-03-13T04:36:44;99431.06;;;9.92;90.09
15263;BME280;7733;51.554;13.590;2023-03-13T04:39:09;99430.28;;;9.89;90.89
15263;BME280;7733;51.554;13.590;2023-03-13T04:41:35;99416.84;;;10.01;90.16
15263;BME280;7733;51.554;13.590;2023-03-13T04:44:01;99417.44;;;10.11;89.98
15263;BME280;7733;51.554;13.590;2023-03-13T04:46:26;99418.56;;;10.02;90.08
15263;BME280;7733;51.554;13.590;2023-03-13T04:48:52;99413.88;;;9.82;90.54
15263;BME280;7733;51.554;13.590;2023-03-13T04:51:18;99403.53;;;10.09;89.80
15263;BME280;7733;51.554;13.590;2023-03-13T04:53:43;99389.78;;;10.00;90.03
15263;BME280;7733;51.554;13.590;2023-03-13T04:56:20;99394.09;;;9.70;91.75
15263;BME280;7733;51.554;13.590;2023-03-13T04:58:46;99389.13;;;9.92;90.38
15263;BME280;7733;51.554;13.590;2023-03-13T05:01:11;99387.50;;;9.88;90.71
15263;BME280;7733;51.554;13.590;2023-03-13T05:03:37;99387.19;;;9.99;90.77
15263;BME280;7733;51.554;13.590;2023-03-13T05:06:03;99386.69;;;9.86;90.71
15263;BME280;7733;51.554;13.590;2023-03-13T05:08:29;99380.47;;;9.90;90.63
15263;BME280;7733;51.554;13.590;2023-03-13T05:10:55;99379.63;;;9.90;90.71
15263;BME280;7733;51.554;13.590;2023-03-13T05:13:20;99378.66;;;9.92;90.63
15263;BME280;7733;51.554;13.590;2023-03-13T05:15:46;99359.28;;;9.98;90.42
15263;BME280;7733;51.554;13.590;2023-03-13T05:18:12;99345.47;;;9.93;90.76
15263;BME280;7733;51.554;13.590;2023-03-13T05:20:37;99346.50;;;9.87;91.04
15263;BME280;7733;51.554;13.590;2023-03-13T05:23:03;99331.50;;;9.92;90.82
15263;BME280;7733;51.554;13.590;2023-03-13T05:25:29;99324.13;;;10.06;90.65
15263;BME280;7733;51.554;13.590;2023-03-13T05:27:54;99320.59;;;10.07;90.61
15263;BME280;7733;51.554;13.590;2023-03-13T05:30:20;99331.09;;;10.07;90.03
15263;BME280;7733;51.554;13.590;2023-03-13T05:32:46;99324.66;;;9.88;91.06
15263;BME280;7733;51.554;13.590;2023-03-13T05:35:12;99320.78;;;10.01;90.97
15263;BME280;7733;51.554;13.590;2023-03-13T05:37:38;99313.75;;;10.03;90.72
15263;BME280;7733;51.554;13.590;2023-03-13T05:40:04;99317.06;;;10.09;91.05
15263;BME280;7733;51.554;13.590;2023-03-13T05:42:30;99306.75;;;10.04;90.67
15263;BME280;7733;51.554;13.590;2023-03-13T05:44:56;99298.88;;;10.04;90.44
15263;BME280;7733;51.554;13.590;2023-03-13T05:47:22;99306.41;;;10.15;90.34
15263;BME280;7733;51.554;13.590;2023-03-13T05:49:47;99300.09;;;10.23;90.21
15263;BME280;7733;51.554;13.590;2023-03-13T05:52:13;99303.31;;;10.31;90.38
15263;BME280;7733;51.554;13.590;2023-03-13T05:54:39;99302.38;;;10.34;90.07
15263;BME280;7733;51.554;13.590;2023-03-13T05:57:05;99288.94;;;10.45;89.36
15263;BME280;7733;51.554;13.590;2023-03-13T05:59:30;99290.41;;;10.25;89.77
15263;BME280;7733;51.554;13.590;2023-03-13T06:01:56;99290.47;;;10.24;90.16
15263;BME280;7733;51.554;13.590;2023-03-13T06:04:22;99289.69;;;10.48;88.68
15263;BME280;7733;51.554;13.590;2023-03-13T06:06:47;99286.28;;;10.46;89.15
15263;BME280;7733;51.554;13.590;2023-03-13T06:09:13;99286.44;;;10.40;89.19
15263;BME280;7733;51.554;13.590;2023-03-13T06:11:39;99286.38;;;10.43;89.21
15263;BME280;7733;51.554;13.590;2023-03-13T06:14:04;99280.78;;;10.54;88.99
15263;BME280;7733;51.554;13.590;2023-03-13T06:16:30;99277.72;;;10.40;89.35
15263;BME280;7733;51.554;13.590;2023-03-13T06:18:57;99275.53;;;10.54;89.42
15263;BME280;7733;51.554;13.590;2023-03-13T06:21:23;99253.09;;;10.72;88.46
15263;BME280;7733;51.554;13.590;2023-03-13T06:23:48;99242.88;;;10.64;88.88
15263;BME280;7733;51.554;13.590;2023-03-13T06:26:14;99244.44;;;10.70;88.96
15263;BME280;7733;51.554;13.590;2023-03-13T06:28:40;99236.22;;;10.54;89.88
15263;BME280;7733;51.554;13.590;2023-03-13T06:31:06;99228.66;;;10.71;89.05
15263;BME280;7733;51.554;13.590;2023-03-13T06:33:32;99227.53;;;10.78;88.52
15263;BME280;7733;51.554;13.590;2023-03-13T06:36:02;99228.88;;;10.90;88.01
15263;BME280;7733;51.554;13.590;2023-03-13T06:38:29;99222.84;;;10.88;87.86
15263;BME280;7733;51.554;13.590;2023-03-13T06:40:55;99204.25;;;10.94;88.62
15263;BME280;7733;51.554;13.590;2023-03-13T06:43:21;99196.66;;;11.11;87.28
15263;BME280;7733;51.554;13.590;2023-03-13T06:45:47;99204.47;;;10.88;87.82
15263;BME280;7733;51.554;13.590;2023-03-13T06:48:13;99192.59;;;11.03;87.50
15263;BME280;7733;51.554;13.590;2023-03-13T06:50:40;99197.53;;;11.12;87.43
15263;BME280;7733;51.554;13.590;2023-03-13T06:53:06;99187.19;;;11.07;87.95
15263;BME280;7733;51.554;13.590;2023-03-13T06:55:32;99180.69;;;11.17;87.21
15263;BME280;7733;51.554;13.590;2023-03-13T06:57:58;99174.59;;;11.17;87.14
15263;BME280;7733;51.554;13.590;2023-03-13T07:00:24;99180.38;;;11.26;86.97
15263;BME280;7733;51.554;13.590;2023-03-13T07:02:50;99176.16;;;11.22;87.69
15263;BME280;7733;51.554;13.590;2023-03-13T07:05:16;99164.38;;;11.33;87.77
15263;BME280;7733;51.554;13.590;2023-03-13T07:07:42;99164.91;;;11.42;88.93
15263;BME280;7733;51.554;13.590;2023-03-13T07:10:10;99165.13;;;11.36;89.20
15263;BME280;7733;51.554;13.590;2023-03-13T07:12:36;99158.16;;;11.35;90.20
15263;BME280;7733;51.554;13.590;2023-03-13T07:15:04;99167.06;;;11.31;90.51
15263;BME280;7733;51.554;13.590;2023-03-13T07:17:30;99169.53;;;11.36;91.45
15263;BME280;7733;51.554;13.590;2023-03-13T07:19:56;99167.56;;;11.41;92.99
15263;BME280;7733;51.554;13.590;2023-03-13T07:22:21;99167.00;;;11.09;97.03
15263;BME280;7733;51.554;13.590;2023-03-13T07:24:47;99158.56;;;11.00;98.95
15263;BME280;7733;51.554;13.590;2023-03-13T07:27:13;99155.53;;;11.12;100.00
15263;BME280;7733;51.554;13.590;2023-03-13T07:29:41;99138.38;;;11.26;99.20
15263;BME280;7733;51.554;13.590;2023-03-13T07:32:07;99140.06;;;11.04;100.00
15263;BME280;7733;51.554;13.590;2023-03-13T07:34:33;99139.94;;;10.84;100.00
15263;BME280;7733;51.554;13.590;2023-03-13T07:36:59;99141.25;;;11.19;100.00
15263;BME280;7733;51.554;13.590;2023-03-13T07:39:24;99145.75;;;10.92;100.00
15263;BME280;7733;51.554;13.590;2023-03-13T07:41:50;99132.41;;;10.98;100.00
15263;BME280;7733;51.554;13.590;2023-03-13T07:44:16;99134.22;;;10.96;100.00
15263;BME280;7733;51.554;13.590;2023-03-13T07:46:41;99128.25;;;10.68;100.00
15263;BME280;7733;51.554;13.590;2023-03-13T07:49:07;99132.59;;;10.69;100.00
15263;BME280;7733;51.554;13.590;2023-03-13T07:51:33;99135.88;;;10.98;100.00
15263;BME280;7733;51.554;13.590;2023-03-13T07:53:58;99127.44;;;10.90;100.00
15263;BME280;7733;51.554;13.590;2023-03-13T07:56:24;99130.69;;;10.97;100.00
15263;BME280;7733;51.554;13.590;2023-03-13T07:58:50;99125.47;;;10.72;100.00
15263;BME280;7733;51.554;13.590;2023-03-13T08:01:26;99123.91;;;10.66;100.00
15263;BME280;7733;51.554;13.590;2023-03-13T08:03:55;99129.22;;;10.90;100.00
15263;BME280;7733;51.554;13.590;2023-03-13T08:06:23;99133.38;;;10.95;100.00
15263;BME280;7733;51.554;13.590;2023-03-13T08:08:51;99116.53;;;11.01;100.00
15263;BME280;7733;51.554;13.590;2023-03-13T08:11:21;99124.81;;;10.90;100.00
15263;BME280;7733;51.554;13.590;2023-03-13T08:13:47;99129.22;;;11.13;100.00
15263;BME280;7733;51.554;13.590;2023-03-13T08:16:19;99128.88;;;10.99;100.00
15263;BME280;7733;51.554;13.590;2023-03-13T08:18:48;99119.22;;;11.00;100.00
15263;BME280;7733;51.554;13.590;2023-03-13T08:21:26;99107.25;;;10.92;100.00
15263;BME280;7733;51.554;13.590;2023-03-13T08:23:58;99112.31;;;10.97;100.00
15263;BME280;7733;51.554;13.590;2023-03-13T08:26:28;99107.78;;;11.02;100.00
15263;BME280;7733;51.554;13.590;2023-03-13T08:29:00;99104.66;;;10.68;100.00
15263;BME280;7733;51.554;13.590;2023-03-13T08:31:43;99091.94;;;11.05;100.00
15263;BME280;7733;51.554;13.590;2023-03-13T08:34:11;99089.91;;;10.88;100.00
15263;BME280;7733;51.554;13.590;2023-03-13T08:36:37;99081.56;;;11.02;100.00
15263;BME280;7733;51.554;13.590;2023-03-13T08:39:10;99084.84;;;11.07;100.00
15263;BME280;7733;51.554;13.590;2023-03-13T08:41:37;99121.16;;;10.94;100.00
15263;BME280;7733;51.554;13.590;2023-03-13T08:44:06;99117.13;;;11.09;100.00
15263;BME280;7733;51.554;13.590;2023-03-13T08:46:35;99100.38;;;11.13;100.00
15263;BME280;7733;51.554;13.590;2023-03-13T08:49:03;99092.97;;;11.24;100.00
15263;BME280;7733;51.554;13.590;2023-03-13T08:51:29;99087.59;;;11.04;100.00
15263;BME280;7733;51.554;13.590;2023-03-13T08:53:55;99083.41;;;10.98;100.00
15263;BME280;7733;51.554;13.590;2023-03-13T08:56:26;99094.38;;;11.10;100.00
15263;BME280;7733;51.554;13.590;2023-03-13T08:58:56;99080.75;;;11.23;100.00
15263;BME280;7733;51.554;13.590;2023-03-13T09:01:26;99086.09;;;11.20;100.00
15263;BME280;7733;51.554;13.590;2023-03-13T09:03:52;99072.84;;;11.47;100.00
15263;BME280;7733;51.554;13.590;2023-03-13T09:06:18;99072.25;;;11.62;100.00
15263;BME280;7733;51.554;13.590;2023-03-13T09:08:45;99077.41;;;11.18;100.00
15263;BME280;7733;51.554;13.590;2023-03-13T09:11:18;99081.53;;;11.25;100.00
15263;BME280;7733;51.554;13.590;2023-03-13T09:13:49;99060.50;;;11.49;100.00
15263;BME280;7733;51.554;13.590;2023-03-13T09:16:21;99063.00;;;11.30;100.00
15263;BME280;7733;51.554;13.590;2023-03-13T09:18:49;99052.69;;;11.25;100.00
15263;BME280;7733;51.554;13.590;2023-03-13T09:21:25;99034.38;;;11.46;100.00
15263;BME280;7733;51.554;13.590;2023-03-13T09:23:52;99050.00;;;11.49;100.00
15263;BME280;7733;51.554;13.590;2023-03-13T09:26:19;99062.63;;;11.61;100.00
15263;BME280;7733;51.554;13.590;2023-03-13T09:28:46;99068.69;;;11.86;100.00
15263;BME280;7733;51.554;13.590;2023-03-13T09:31:15;99064.47;;;11.82;100.00
15263;BME280;7733;51.554;13.590;2023-03-13T09:33:43;99064.16;;;11.90;100.00
15263;BME280;7733;51.554;13.590;2023-03-13T09:36:10;99066.06;;;11.86;100.00
15263;BME280;7733;51.554;13.590;2023-03-13T09:38:37;99053.47;;;12.15;100.00
15263;BME280;7733;51.554;13.590;2023-03-13T09:46:27;99051.72;;;11.94;100.00
15263;BME280;7733;51.554;13.590;2023-03-13T09:49:03;99029.44;;;12.04;100.00
15263;BME280;7733;51.554;13.590;2023-03-13T09:51:37;99048.19;;;11.95;100.00
15263;BME280;7733;51.554;13.590;2023-03-13T09:54:08;99059.00;;;12.09;100.00
15263;BME280;7733;51.554;13.590;2023-03-13T09:56:59;99052.81;;;12.10;100.00
15263;BME280;7733;51.554;13.590;2023-03-13T10:02:35;99037.31;;;12.04;100.00
15263;BME280;7733;51.554;13.590;2023-03-13T10:07:42;99037.19;;;12.27;100.00
15263;BME280;7733;51.554;13.590;2023-03-13T10:10:20;99029.31;;;12.27;100.00
15263;BME280;7733;51.554;13.590;2023-03-13T10:12:56;99040.13;;;12.40;100.00
15263;BME280;7733;51.554;13.590;2023-03-13T10:16:03;99032.66;;;12.31;100.00
15263;BME280;7733;51.554;13.590;2023-03-13T10:18:32;99040.19;;;12.38;100.00
15263;BME280;7733;51.554;13.590;2023-03-13T10:21:03;99041.97;;;12.58;100.00
15263;BME280;7733;51.554;13.590;2023-03-13T10:23:49;99057.03;;;12.55;100.00
15263;BME280;7733;51.554;13.590;2023-03-13T10:26:24;99041.28;;;12.73;100.00
15263;BME280;7733;51.554;13.590;2023-03-13T10:29:19;99049.00;;;12.58;100.00
15263;BME280;7733;51.554;13.590;2023-03-13T10:31:59;99038.53;;;12.76;100.00
15263;BME280;7733;51.554;13.590;2023-03-13T10:34:30;99049.38;;;12.89;100.00
15263;BME280;7733;51.554;13.590;2023-03-13T10:37:15;99036.91;;;12.93;100.00
15263;BME280;7733;51.554;13.590;2023-03-13T10:39:41;99038.88;;;13.08;100.00
15263;BME280;7733;51.554;13.590;2023-03-13T10:42:30;99040.94;;;13.01;100.00
15263;BME280;7733;51.554;13.590;2023-03-13T10:45:00;99046.53;;;13.13;100.00
15263;BME280;7733;51.554;13.590;2023-03-13T10:47:32;99051.53;;;13.19;100.00
15263;BME280;7733;51.554;13.590;2023-03-13T10:50:03;99032.06;;;13.23;100.00
15263;BME280;7733;51.554;13.590;2023-03-13T10:52:35;99037.19;;;13.45;100.00
15263;BME280;7733;51.554;13.590;2023-03-13T10:55:10;99044.72;;;13.33;100.00
15263;BME280;7733;51.554;13.590;2023-03-13T10:57:37;99025.50;;;13.31;100.00
15263;BME280;7733;51.554;13.590;2023-03-13T11:00:36;99029.94;;;13.31;100.00
15263;BME280;7733;51.554;13.590;2023-03-13T11:05:42;99027.66;;;13.42;100.00
15263;BME280;7733;51.554;13.590;2023-03-13T11:08:20;99021.72;;;13.37;100.00
15263;BME280;7733;51.554;13.590;2023-03-13T11:11:03;99015.09;;;13.47;100.00
15263;BME280;7733;51.554;13.590;2023-03-13T11:13:41;99017.75;;;13.47;100.00
15263;BME280;7733;51.554;13.590;2023-03-13T11:16:28;98997.13;;;13.55;100.00
15263;BME280;7733;51.554;13.590;2023-03-13T11:22:28;98971.69;;;13.73;100.00
15263;BME280;7733;51.554;13.590;2023-03-13T11:25:30;98966.16;;;13.78;100.00
15263;BME280;7733;51.554;13.590;2023-03-13T11:28:29;98957.25;;;13.97;100.00
15263;BME280;7733;51.554;13.590;2023-03-13T11:31:24;98959.13;;;13.95;100.00
15263;BME280;7733;51.554;13.590;2023-03-13T11:34:22;98957.06;;;14.02;100.00
15263;BME280;7733;51.554;13.590;2023-03-13T11:37:04;98946.47;;;14.19;100.00
15263;BME280;7733;51.554;13.590;2023-03-13T11:40:02;98929.94;;;14.16;100.00
15263;BME280;7733;51.554;13.590;2023-03-13T11:56:46;98898.13;;;14.69;100.00
15263;BME280;7733;51.554;13.590;2023-03-13T11:59:41;98900.66;;;15.18;99.94
15263;BME280;7733;51.554;13.590;2023-03-13T12:02:35;98897.91;;;15.19;98.95
15263;BME280;7733;51.554;13.590;2023-03-13T12:05:10;98909.22;;;15.37;97.79
15263;BME280;7733;51.554;13.590;2023-03-13T12:08:02;98892.25;;;15.41;97.33
15263;BME280;7733;51.554;13.590;2023-03-13T12:10:38;98895.31;;;15.49;96.59
15263;BME280;7733;51.554;13.590;2023-03-13T12:13:31;98891.66;;;15.52;96.17
15263;BME280;7733;51.554;13.590;2023-03-13T12:16:06;98883.91;;;15.49;95.12
15263;BME280;7733;51.554;13.590;2023-03-13T12:18:40;98879.22;;;15.98;94.83
15263;BME280;7733;51.554;13.590;2023-03-13T12:21:18;98880.94;;;16.13;94.08
15263;BME280;7733;51.554;13.590;2023-03-13T12:34:32;98861.56;;;16.56;91.87
15263;BME280;7733;51.554;13.590;2023-03-13T12:37:12;98861.34;;;16.59;90.71
15263;BME280;7733;51.554;13.590;2023-03-13T12:39:50;98861.69;;;16.68;90.62
15263;BME280;7733;51.554;13.590;2023-03-13T12:43:02;98884.53;;;16.55;90.87
15263;BME280;7733;51.554;13.590;2023-03-13T12:45:34;98885.59;;;16.67;90.09
15263;BME280;7733;51.554;13.590;2023-03-13T12:48:14;98896.84;;;16.70;89.82
15263;BME280;7733;51.554;13.590;2023-03-13T12:59:27;98889.56;;;16.46;88.87
15263;BME280;7733;51.554;13.590;2023-03-13T13:01:55;98875.88;;;16.67;88.58
15263;BME280;7733;51.554;13.590;2023-03-13T13:04:26;98880.38;;;16.51;89.04
15263;BME280;7733;51.554;13.590;2023-03-13T13:07:06;98882.84;;;16.54;88.58
15263;BME280;7733;51.554;13.590;2023-03-13T13:12:39;98884.06;;;16.63;89.80
15263;BME280;7733;51.554;13.590;2023-03-13T13:15:29;98875.28;;;16.34;89.50
15263;BME280;7733;51.554;13.590;2023-03-13T13:23:43;98859.97;;;16.39;89.22
15263;BME280;7733;51.554;13.590;2023-03-13T13:39:52;98853.06;;;16.36;88.66
15263;BME280;7733;51.554;13.590;2023-03-13T13:47:46;98871.13;;;16.30;88.36
15263;BME280;7733;51.554;13.590;2023-03-13T13:50:24;98865.25;;;16.39;88.61
15263;BME280;7733;51.554;13.590;2023-03-13T13:52:51;98856.56;;;16.37;89.33
15263;BME280;7733;51.554;13.590;2023-03-13T13:55:42;98854.78;;;16.23;89.00
15263;BME280;7733;51.554;13.590;2023-03-13T13:58:19;98859.69;;;16.29;88.64
15263;BME280;7733;51.554;13.590;2023-03-13T14:01:05;98844.94;;;16.39;88.94
15263;BME280;7733;51.554;13.590;2023-03-13T14:03:39;98835.41;;;16.37;89.24
15263;BME280;7733;51.554;13.590;2023-03-13T14:06:23;98831.34;;;16.31;88.73
15263;BME280;7733;51.554;13.590;2023-03-13T14:08:57;98830.84;;;16.39;89.25
15263;BME280;7733;51.554;13.590;2023-03-13T14:11:37;98826.16;;;16.44;88.92
15263;BME280;7733;51.554;13.590;2023-03-13T14:14:15;98827.16;;;16.70;88.23
15263;BME280;7733;51.554;13.590;2023-03-13T14:16:48;98824.56;;;16.27;89.12
15263;BME280;7733;51.554;13.590;2023-03-13T14:19:38;98822.91;;;16.39;89.41
15263;BME280;7733;51.554;13.590;2023-03-13T14:22:10;98823.31;;;16.33;89.83
15263;BME280;7733;51.554;13.590;2023-03-13T14:24:39;98810.22;;;16.58;89.04
15263;BME280;7733;51.554;13.590;2023-03-13T14:27:18;98811.28;;;16.41;89.26
15263;BME280;7733;51.554;13.590;2023-03-13T14:30:07;98803.81;;;16.48;89.00
15263;BME280;7733;51.554;13.590;2023-03-13T14:32:34;98811.00;;;16.46;88.89
15263;BME280;7733;51.554;13.590;2023-03-13T14:35:00;98803.06;;;16.46;89.09
15263;BME280;7733;51.554;13.590;2023-03-13T14:37:36;98795.75;;;16.64;89.07
15263;BME280;7733;51.554;13.590;2023-03-13T14:40:23;98800.03;;;16.66;88.43
15263;BME280;7733;51.554;13.590;2023-03-13T14:42:58;98795.44;;;16.83;87.71
15263;BME280;7733;51.554;13.590;2023-03-13T14:45:31;98793.00;;;16.65;88.23
15263;BME280;7733;51.554;13.590;2023-03-13T14:48:13;98784.25;;;16.51;89.17
15263;BME280;7733;51.554;13.590;2023-03-13T14:50:42;98777.69;;;16.70;88.29
15263;BME280;7733;51.554;13.590;2023-03-13T14:53:16;98773.25;;;16.57;88.73